Terminal Aerodrome Forecast
Issued by NWS Anchorage, AK

Home | Current Version | Previous Version | Text Only | Print | Product List | Glossary On
Versions: 1 2 3 4 5 6 7 8 9 10 11 12 13 14 15 16 17 18
000
FTAK31 PANC 162342
TAFANC
TAF
PANC 162342Z 1700/1806 18010KT P6SM FEW009 SCT030 OVC045
      TEMPO 1700/1703 5SM -SHRA BR BKN030
     FM170400 16006KT P6SM VCSH SCT045 BKN090
      TEMPO 1704/1708 BKN045
     FM172000 19008KT P6SM -SHRA FEW030 BKN050=

USA.gov is the U.S. government's official web portal to all federal, state and local government web resources and services.